Date,TemperatureHighF,TemperatureAvgF,TemperatureLowF,DewpointHighF,DewpointAvgF,DewpointLowF,HumidityHigh,HumidityAvg,HumidityLow,PressureMaxIn,PressureMinIn,WindSpeedMaxMPH,WindSpeedAvgMPH,GustSpeedMaxMPH,PrecipitationSumIn
2013-1-1,47.8,43.7,39.3,41.0,36.4,32.0,93,76,55,30.25,30.20,0,0,0,0.00
2013-1-2,50.9,44.9,39.1,38.0,35.0,32.0,87,69,50,30.22,30.13,0,0,0,0.00
2013-1-3,49.8,44.6,40.3,40.0,37.6,34.0,89,77,67,30.26,30.15,0,0,0,0.00
2013-1-4,51.3,46.0,41.3,40.0,37.3,36.0,86,72,59,30.27,30.17,0,0,0,0.00
2013-1-5,50.0,46.6,42.9,47.0,43.6,38.0,96,90,79,30.24,30.05,0,0,0,0.25
2013-1-6,48.1,44.5,42.2,46.0,42.3,41.0,96,92,80,30.18,30.02,0,0,0,0.12
2013-1-7,53.6,47.7,42.3,50.0,44.9,41.0,96,90,78,30.26,30.15,0,0,0,0.00
2013-1-8,55.3,49.8,45.8,48.0,44.9,43.0,91,84,72,30.23,30.12,0,0,0,0.00
2013-1-9,50.7,46.0,41.7,49.0,42.7,37.0,96,88,79,30.13,30.00,0,0,0,0.01
2013-1-10,46.8,42.6,39.5,37.0,35.1,33.0,83,75,61,30.19,30.07,0,0,0,0.00
2013-1-11,47.4,42.8,39.8,41.0,36.0,31.0,89,77,65,30.25,30.12,0,0,0,0.00
2013-1-12,47.0,41.4,37.7,37.0,32.1,25.0,88,71,45,30.23,30.14,0,0,0,0.00
2013-1-13,44.4,40.2,35.1,35.0,26.1,16.0,79,58,35,30.25,30.18,0,0,0,0.00
2013-1-14,45.5,41.2,35.0,34.0,22.0,15.0,77,48,32,30.39,30.22,0,0,0,0.00
2013-1-15,49.5,42.9,37.6,36.0,31.7,26.0,87,66,42,30.47,30.39,0,0,0,0.00
2013-1-16,51.2,44.6,38.0,37.0,34.6,32.0,88,69,56,30.42,30.24,0,0,0,0.00
2013-1-17,57.9,49.6,41.9,38.0,33.4,30.0,79,56,37,30.25,30.14,0,0,0,0.00
2013-1-18,58.9,51.9,46.0,39.0,34.2,28.0,71,53,35,30.20,30.13,0,0,0,0.00
2013-1-19,58.2,52.6,45.9,36.0,32.8,27.0,65,48,38,30.22,30.14,0,0,0,0.00
2013-1-20,58.9,52.6,46.9,36.0,32.6,29.0,64,48,33,30.20,30.12,0,0,0,0.00
2013-1-21,58.9,52.1,45.1,39.0,35.7,30.0,69,54,43,30.16,30.07,0,0,0,0.00
2013-1-22,57.8,52.4,45.8,41.0,38.4,31.0,76,60,39,30.10,29.99,0,0,0,0.00
2013-1-23,57.8,51.6,48.2,49.0,43.2,30.0,95,75,39,30.07,29.94,0,0,0,0.18
2013-1-24,56.3,51.6,48.3,51.0,48.8,47.0,95,90,80,30.18,30.05,0,0,0,0.00
2013-1-25,60.2,54.0,50.1,53.0,50.6,48.0,95,88,77,30.18,30.04,0,0,0,0.00
2013-1-26,52.7,48.2,44.8,48.0,44.6,41.0,96,87,74,30.08,30.00,0,0,0,0.00
2013-1-27,51.3,45.2,41.5,42.0,38.4,34.0,88,77,59,30.17,30.07,0,0,0,0.00
2013-1-28,52.3,46.4,42.8,44.0,40.3,36.0,92,79,65,30.29,30.16,0,0,0,0.00
2013-1-29,52.2,47.5,43.1,46.0,42.1,39.0,90,82,67,30.35,30.27,0,0,0,0.00
2013-1-30,61.6,52.2,46.2,48.0,43.4,40.0,92,72,48,30.34,30.25,0,0,0,0.00
2013-1-31,58.3,52.2,46.1,47.0,44.1,42.0,85,74,64,30.27,30.17,0,0,0,0.00
2013-2-1,60.1,52.6,46.3,47.0,44.6,43.0,93,75,59,30.21,30.11,0,0,0,0.00
2013-2-2,51.0,47.6,44.8,47.0,45.4,43.0,96,92,86,30.28,30.20,0,0,0,0.00
2013-2-3,53.9,46.8,42.6,46.0,43.1,40.0,95,87,70,30.25,30.15,0,0,0,0.00
2013-2-4,51.2,46.3,44.6,47.0,44.6,43.0,96,93,85,30.17,30.07,0,0,0,0.00
2013-2-5,50.9,47.1,44.6,48.0,44.0,40.0,98,89,82,30.15,30.07,0,0,0,0.00
2013-2-6,52.3,46.1,41.6,45.0,42.3,39.0,95,87,65,30.19,30.13,0,0,0,0.00
2013-2-7,49.8,45.0,39.5,46.0,42.4,38.0,96,91,78,30.17,29.99,0,0,0,0.32
2013-2-8,47.8,43.6,38.8,43.0,38.3,27.0,96,83,47,30.01,29.93,0,0,0,0.23
2013-2-9,54.1,46.3,41.2,40.0,33.2,24.0,85,62,33,30.09,30.00,0,0,0,0.00
2013-2-10,55.8,46.1,40.0,44.0,38.9,33.0,94,77,47,30.11,30.03,0,0,0,0.00
2013-2-11,58.5,50.0,44.3,46.0,35.5,27.0,94,61,30,30.22,30.07,0,0,0,0.00
2013-2-12,57.4,47.2,43.0,46.0,43.5,41.0,96,88,58,30.36,30.22,0,0,0,0.00
2013-2-13,53.9,46.7,42.5,49.0,44.5,41.0,97,92,79,30.34,30.22,0,0,0,0.00
2013-2-14,63.2,53.7,44.2,46.0,43.7,42.0,96,72,47,30.24,30.16,0,0,0,0.00
2013-2-15,66.3,59.1,52.5,44.0,40.9,37.0,71,52,39,30.26,30.19,0,0,0,0.00
2013-2-16,64.2,54.3,46.8,50.0,45.4,41.0,95,73,52,30.21,30.05,0,0,0,0.00
2013-2-17,56.5,48.0,43.3,47.0,43.8,41.0,95,86,68,30.05,29.98,0,0,0,0.00
2013-2-18,49.9,46.1,44.1,44.0,41.1,37.0,95,83,72,30.03,29.96,0,0,0,0.00
2013-2-19,44.9,42.2,37.3,43.0,38.4,33.0,95,86,76,29.96,29.75,0,0,0,0.39
2013-2-20,53.5,44.4,37.3,43.0,37.7,32.0,88,78,58,30.06,29.84,0,0,0,0.00
2013-2-21,53.7,46.1,40.6,42.0,38.6,33.0,93,76,46,30.16,30.05,0,0,0,0.00
2013-2-22,55.8,47.5,43.4,46.0,42.2,38.0,92,82,61,30.25,30.16,0,0,0,0.00
2013-2-23,53.6,47.4,42.7,46.0,39.7,30.0,96,76,53,30.25,30.17,0,0,0,0.02
2013-2-24,57.7,48.3,43.3,42.0,31.7,22.0,92,56,30,30.24,30.17,0,0,0,0.00
2013-2-25,54.9,46.8,41.8,47.0,42.9,40.0,96,86,68,30.26,30.18,0,0,0,0.00
2013-2-26,58.9,49.0,43.1,43.0,35.8,24.0,91,64,26,30.20,30.15,0,0,0,0.00
2013-2-27,60.2,49.7,44.0,49.0,43.4,37.0,95,80,60,30.36,30.20,0,0,0,0.00
2013-2-28,58.7,49.7,46.3,52.0,47.6,45.0,97,92,76,30.45,30.36,0,0,0,0.00
2013-3-1,67.7,55.6,48.4,53.0,49.1,47.0,97,80,55,30.42,30.23,0,0,0,0.00
2013-3-2,66.1,55.2,48.2,53.0,48.6,46.0,94,79,59,30.23,30.07,0,0,0,0.00
2013-3-3,53.1,48.6,45.6,49.0,46.3,44.0,99,91,84,30.10,30.05,0,0,0,0.00
2013-3-4,50.6,45.5,42.3,44.0,42.4,40.0,95,89,78,30.14,30.05,0,0,0,0.00
2013-3-5,53.7,47.0,40.6,45.0,41.6,38.0,94,82,69,30.06,29.82,0,0,0,0.03
2013-3-6,53.5,47.9,42.1,47.0,44.1,40.0,95,87,71,30.06,29.82,0,0,0,0.00
2013-3-7,53.1,45.7,41.6,44.0,41.8,38.0,95,87,61,29.98,29.86,0,0,0,0.00
2013-3-8,53.4,46.7,43.4,46.0,42.9,39.0,95,86,75,30.05,29.83,0,0,0,0.00
2013-3-9,57.1,48.4,41.6,46.0,42.9,39.0,93,82,61,30.30,30.05,0,0,0,0.00
2013-3-10,61.5,51.0,45.5,50.0,45.1,42.0,94,81,55,30.34,30.26,0,0,0,0.00
2013-3-11,68.6,51.0,43.9,50.0,45.2,42.0,95,82,45,30.25,30.11,0,0,0,0.00
2013-3-12,64.2,50.2,45.0,53.0,46.9,44.0,97,89,66,30.15,30.09,0,0,0,0.00
2013-3-13,61.2,50.0,44.1,53.0,47.5,43.0,97,91,69,30.15,30.07,0,0,0,0.00
2013-3-14,52.6,48.1,44.7,50.0,46.3,44.0,97,93,87,30.17,30.08,0,0,0,0.00
2013-3-15,63.9,50.1,45.1,53.0,47.2,44.0,96,90,67,30.14,30.04,0,0,0,0.01
2013-3-16,58.4,49.0,45.6,50.0,46.3,45.0,97,90,73,30.12,30.03,0,0,0,0.00
2013-3-17,61.2,49.6,45.0,48.0,43.9,42.0,91,81,60,30.15,30.06,0,0,0,0.00
2013-3-18,57.5,48.4,43.5,48.0,44.7,42.0,96,87,69,30.13,30.04,0,0,0,0.00
2013-3-19,59.5,49.8,45.3,49.0,45.3,42.0,94,85,56,30.13,30.05,0,0,0,0.09
2013-3-20,56.0,50.7,47.1,52.0,48.3,43.0,96,91,76,30.13,30.05,0,0,0,0.17
2013-3-21,55.6,47.2,40.5,46.0,42.7,39.0,96,85,65,30.13,30.02,0,0,0,0.00
2013-3-22,58.5,49.9,44.6,43.0,39.0,28.0,88,68,38,30.12,30.03,0,0,0,0.00
2013-3-23,65.2,51.9,44.9,44.0,37.0,26.0,90,60,27,30.13,30.06,0,0,0,0.00
2013-3-24,56.8,48.2,43.8,48.0,44.4,42.0,96,87,68,30.09,29.99,0,0,0,0.00
2013-3-25,53.0,46.8,44.0,45.0,43.0,42.0,94,87,73,30.03,29.96,0,0,0,0.00
2013-3-26,55.3,48.9,44.8,48.0,44.8,42.0,93,86,74,30.01,29.95,0,0,0,0.00
2013-3-27,57.6,51.2,46.5,52.0,48.9,45.0,96,92,81,30.01,29.94,0,0,0,0.01
2013-3-28,58.7,52.8,50.0,55.0,51.0,49.0,97,93,84,30.08,29.99,0,0,0,0.03
2013-3-29,69.8,54.1,49.0,55.0,49.9,47.0,96,86,57,30.07,30.02,0,0,0,0.00
2013-3-30,64.0,53.8,49.5,54.0,50.6,48.0,97,89,69,30.07,29.97,0,0,0,0.08
2013-3-31,62.3,55.2,50.5,56.0,52.2,49.0,96,90,77,30.06,29.98,0,0,0,0.11
2013-4-1,57.4,53.0,48.9,54.0,51.4,48.0,97,94,84,30.15,30.03,0,0,0,0.51
2013-4-2,55.1,49.6,47.0,51.0,48.2,46.0,97,95,85,30.19,30.10,0,0,0,0.00
2013-4-3,69.4,51.5,46.3,55.0,48.1,46.0,98,90,47,30.14,30.00,0,0,0,0.00
2013-4-4,58.7,53.0,48.0,56.0,51.9,47.0,97,96,90,30.12,29.98,0,0,0,0.45
2013-4-5,57.1,53.2,50.3,55.0,51.9,49.0,98,95,85,30.19,30.11,0,0,0,0.03
2013-4-6,55.0,52.3,50.3,55.0,51.4,49.0,100,96,94,30.19,30.14,0,0,0,0.05
2013-4-7,57.3,52.4,49.5,55.0,50.2,47.0,97,92,82,30.17,29.84,0,0,0,0.06
2013-4-8,58.4,50.0,44.5,47.0,42.2,38.0,93,75,58,30.02,29.78,0,0,0,0.00
2013-4-9,65.7,58.1,52.1,48.0,40.0,32.0,72,52,34,30.10,30.03,0,0,0,0.00
2013-4-10,71.3,59.3,48.6,52.0,46.8,41.0,95,66,44,30.18,30.06,0,0,0,0.00
2013-4-11,59.9,50.2,45.7,49.0,46.1,44.0,96,86,64,30.06,29.86,0,0,0,0.00
2013-4-12,57.7,48.9,44.6,49.0,45.4,43.0,96,88,73,29.92,29.85,0,0,0,0.00
2013-4-13,58.3,49.7,44.4,49.0,44.3,41.0,95,82,68,29.91,29.84,0,0,0,0.00
2013-4-14,56.2,48.5,42.9,44.0,41.4,38.0,93,77,60,29.94,29.88,0,0,0,0.00
2013-4-15,55.6,46.7,41.5,46.0,40.4,37.0,95,80,62,29.95,29.86,0,0,0,0.01
2013-4-16,58.6,49.7,41.5,43.0,38.6,30.0,83,67,41,30.16,29.96,0,0,0,0.00
2013-4-17,64.1,54.8,47.7,44.0,35.5,28.0,83,50,26,30.27,30.16,0,0,0,0.00
2013-4-18,68.2,55.3,46.2,47.0,41.2,31.0,91,62,29,30.27,30.19,0,0,0,0.00
2013-4-19,65.9,53.3,45.5,52.0,46.9,44.0,94,80,57,30.23,30.08,0,0,0,0.00
2013-4-20,68.2,53.1,46.3,50.0,46.2,44.0,94,79,43,30.10,30.00,0,0,0,0.00
2013-4-21,74.2,59.2,46.1,54.0,46.6,37.0,93,65,41,30.04,29.94,0,0,0,0.00
2013-4-22,82.2,64.7,53.4,50.0,45.2,37.0,81,52,23,29.96,29.85,0,0,0,0.00
2013-4-23,71.5,58.1,47.0,48.0,39.5,23.0,92,58,18,29.94,29.85,0,0,0,0.00
2013-4-24,53.8,49.5,46.0,49.0,46.5,44.0,95,89,82,29.95,29.82,0,0,0,0.00
2013-4-25,58.7,52.5,49.0,51.0,48.5,46.0,94,86,73,30.13,29.95,0,0,0,0.00
2013-4-26,56.0,50.3,47.4,49.0,46.4,45.0,92,86,75,30.23,30.12,0,0,0,0.00
2013-4-27,55.1,48.8,46.1,50.0,46.4,45.0,96,91,80,30.23,30.08,0,0,0,0.00
2013-4-28,63.5,53.9,47.0,51.0,48.1,45.0,94,81,57,30.08,29.89,0,0,0,0.00
2013-4-29,73.7,59.9,49.8,56.0,50.1,46.0,90,71,50,29.91,29.78,0,0,0,0.00
2013-4-30,65.1,55.5,47.4,50.0,45.2,31.0,91,71,28,29.86,29.78,0,0,0,0.00
2013-5-1,72.4,62.2,51.7,50.0,36.6,19.0,86,45,15,30.07,29.85,0,0,0,0.00
2013-5-2,88.5,69.2,55.3,45.0,36.4,29.0,50,32,12,30.14,30.07,0,0,0,0.00
2013-5-3,77.3,64.3,54.1,51.0,41.1,25.0,78,45,23,30.07,29.79,0,0,0,0.00
2013-5-4,66.1,57.5,50.5,52.0,47.5,34.0,92,71,37,29.78,29.57,0,0,0,0.00
2013-5-5,64.1,57.1,50.7,52.0,48.3,46.0,84,73,60,29.80,29.59,0,0,0,0.00
2013-5-6,65.4,58.6,53.9,53.0,50.6,49.0,88,75,57,29.96,29.80,0,0,0,0.00
2013-5-7,64.9,56.9,51.7,56.0,52.2,50.0,94,84,68,30.04,29.95,0,0,0,0.00
2013-5-8,57.8,52.0,50.0,51.0,49.0,47.0,95,89,78,30.14,30.03,0,0,0,0.00
2013-5-9,57.4,51.6,48.7,50.0,47.7,46.0,92,87,76,30.18,30.10,0,0,0,0.00
2013-5-10,55.7,50.8,48.3,51.0,48.6,47.0,96,92,84,30.19,30.12,0,0,0,0.00
2013-5-11,65.2,52.2,48.1,56.0,49.4,47.0,97,90,71,30.16,30.07,0,0,0,0.00
2013-5-12,57.7,53.5,49.8,54.0,51.4,49.0,96,92,84,30.16,30.04,0,0,0,0.00
2013-5-13,58.3,52.8,49.3,54.0,50.6,48.0,97,92,85,30.10,29.96,0,0,0,0.00
2013-5-14,61.6,53.5,48.6,52.0,48.6,45.0,95,84,69,30.00,29.92,0,0,0,0.00
2013-5-15,60.5,52.5,47.2,51.0,48.2,45.0,95,85,69,30.06,29.99,0,0,0,0.00
2013-5-16,59.0,53.2,50.3,55.0,51.1,49.0,97,93,82,30.04,29.97,0,0,0,0.00
2013-5-17,60.8,52.7,48.3,52.0,48.7,47.0,95,86,70,30.08,29.97,0,0,0,0.00
2013-5-18,63.2,54.1,46.8,52.0,48.8,45.0,95,83,62,30.13,30.06,0,0,0,0.00
2013-5-19,65.5,55.9,48.6,52.0,48.8,46.0,93,78,57,30.12,29.99,0,0,0,0.00
2013-5-20,78.2,60.3,49.3,52.0,47.6,42.0,91,67,32,30.01,29.93,0,0,0,0.00
2013-5-21,60.9,52.4,46.5,49.0,46.2,41.0,92,80,63,30.01,29.90,0,0,0,0.00
2013-5-22,59.5,51.1,44.9,44.0,40.0,35.0,85,67,50,30.02,29.91,0,0,0,0.00
2013-5-23,60.2,51.0,44.5,46.0,43.5,41.0,89,77,56,30.01,29.92,0,0,0,0.00
2013-5-24,60.5,50.7,43.7,48.0,44.5,42.0,94,80,61,30.01,29.96,0,0,0,0.00
2013-5-25,57.8,51.1,45.5,48.0,46.3,43.0,94,84,69,30.05,29.95,0,0,0,0.00
2013-5-26,59.9,53.4,49.4,54.0,50.6,48.0,96,90,77,30.14,30.05,0,0,0,0.01
2013-5-27,55.5,52.9,49.7,54.0,51.4,48.0,97,94,90,30.13,30.00,0,0,0,0.16
2013-5-28,59.3,54.4,51.2,58.0,52.7,50.0,98,94,84,30.00,29.93,0,0,0,0.04
2013-5-29,61.0,54.0,49.1,55.0,50.8,47.0,96,89,77,29.98,29.92,0,0,0,0.00
2013-5-30,62.5,53.2,46.3,50.0,47.5,45.0,96,82,64,30.00,29.93,0,0,0,0.00
2013-5-31,69.0,55.7,46.9,52.0,48.1,45.0,93,77,52,30.02,29.93,0,0,0,0.00
2013-6-1,67.2,56.2,47.6,54.0,48.6,45.0,93,77,58,29.94,29.79,0,0,0,0.00
2013-6-2,60.5,52.9,48.1,51.0,48.7,47.0,95,86,71,29.80,29.69,0,0,0,0.00
2013-6-3,66.5,54.8,48.5,54.0,50.0,47.0,95,84,64,29.86,29.72,0,0,0,0.00
2013-6-4,61.5,54.2,51.2,54.0,50.5,49.0,93,87,75,29.96,29.84,0,0,0,0.00
2013-6-5,59.1,53.0,50.4,51.0,49.3,48.0,93,87,75,30.00,29.93,0,0,0,0.00
2013-6-6,61.1,53.2,49.5,52.0,49.9,48.0,96,89,72,29.95,29.87,0,0,0,0.00
2013-6-7,64.7,54.9,50.0,56.0,51.3,49.0,97,88,70,29.89,29.74,0,0,0,0.00
2013-6-8,61.0,54.8,50.0,55.0,51.8,48.0,96,89,79,29.80,29.73,0,0,0,0.00
2013-6-9,58.2,54.9,53.5,55.0,53.2,52.0,96,94,87,29.88,29.80,0,0,0,0.00
2013-6-10,68.2,57.1,52.2,55.0,52.5,51.0,96,85,62,29.95,29.80,0,0,0,0.00
2013-6-11,64.2,55.6,50.9,54.0,51.1,48.0,94,85,70,29.99,29.90,0,0,0,0.00
2013-6-12,64.4,54.7,48.0,52.0,49.1,46.0,95,82,64,30.00,29.90,0,0,0,0.00
2013-6-13,64.0,54.7,46.4,52.0,48.4,45.0,95,80,64,30.10,29.99,0,0,0,0.00
2013-6-14,71.2,57.1,49.1,55.0,49.8,47.0,92,78,54,29.99,29.85,0,0,0,0.00
2013-6-15,55.2,51.3,48.7,50.0,48.4,47.0,94,90,83,30.00,29.83,0,0,0,0.00
2013-6-16,61.2,52.8,48.6,53.0,49.4,47.0,95,88,75,30.10,29.99,0,0,0,0.00
2013-6-17,62.7,54.7,49.5,56.0,51.8,48.0,96,90,77,30.10,30.03,0,0,0,0.00
2013-6-18,59.5,54.0,51.1,53.0,51.3,50.0,96,90,79,30.05,29.99,0,0,0,0.00
2013-6-19,64.2,55.6,50.1,53.0,49.6,47.0,95,81,61,30.06,30.00,0,0,0,0.00
2013-6-20,64.9,55.0,48.2,52.0,48.7,46.0,93,80,63,30.01,29.96,0,0,0,0.00
2013-6-21,64.3,54.6,48.5,53.0,49.6,47.0,95,84,66,30.00,29.93,0,0,0,0.00
2013-6-22,64.0,56.0,48.3,54.0,50.6,47.0,95,83,65,29.94,29.87,0,0,0,0.00
2013-6-23,59.5,54.9,51.7,59.0,54.1,51.0,97,97,95,29.88,29.81,0,0,0,0.10
2013-6-24,56.4,54.4,51.9,56.0,53.5,51.0,98,97,96,29.90,29.79,0,0,0,0.05
2013-6-25,65.5,60.5,56.4,64.0,59.5,56.0,98,96,91,29.98,29.87,0,0,0,0.17
2013-7-13,61.7,53.3,52.7,53.0,47.2,-99.9,93,86,74,29.96,0.00,0,-29,0,0.00
2013-7-14,57.7,53.7,50.6,53.0,51.1,49.0,95,91,83,30.00,29.92,0,0,0,0.00
2013-7-15,58.9,53.3,49.4,54.0,51.2,48.0,97,93,83,29.93,29.85,0,0,0,0.00
2013-7-16,63.3,55.9,50.9,56.0,53.4,50.0,96,92,77,30.02,29.86,0,0,0,0.02
2013-7-17,61.8,56.2,52.9,56.0,53.5,51.0,95,90,80,30.09,30.02,0,0,0,0.00
2013-7-18,60.0,54.1,51.5,55.0,51.9,50.0,96,92,81,30.06,29.95,0,0,0,0.00
2013-7-19,58.7,53.4,51.1,55.0,51.6,50.0,97,93,85,29.95,29.85,0,0,0,0.00
2013-7-20,56.8,52.3,50.0,54.0,50.6,49.0,97,94,86,29.86,29.76,0,0,0,0.00
2013-7-21,58.6,53.3,50.3,54.0,51.4,49.0,97,93,84,29.89,29.77,0,0,0,0.00
2013-7-22,60.2,55.5,52.4,57.0,54.0,51.0,97,94,87,29.96,29.88,0,0,0,0.00
2013-7-23,63.5,56.7,53.5,58.0,54.6,52.0,97,93,79,30.01,29.93,0,0,0,0.00
2013-7-24,62.8,55.8,52.0,57.0,53.8,51.0,97,93,79,29.99,29.92,0,0,0,0.00
2013-7-25,57.7,53.5,51.1,54.0,52.0,50.0,97,94,88,30.03,29.92,0,0,0,0.00
2013-7-26,59.3,54.5,51.6,56.0,53.0,51.0,97,95,87,30.10,30.01,0,0,0,0.00
2013-7-27,59.0,54.4,52.4,56.0,53.0,51.0,97,95,88,30.03,29.87,0,0,0,0.00
2013-7-28,58.0,53.8,52.2,54.0,52.3,51.0,97,94,87,29.88,29.82,0,0,0,0.01
2013-7-29,62.0,55.4,51.9,56.0,52.7,51.0,96,91,79,30.01,29.84,0,0,0,0.00
2013-7-30,58.2,54.6,51.6,54.0,52.3,50.0,95,91,85,30.10,30.01,0,0,0,0.00
2013-7-31,58.9,54.2,50.9,54.0,52.1,50.0,97,92,84,30.09,30.01,0,0,0,0.00
2013-8-1,61.9,55.0,52.1,55.0,52.2,51.0,95,90,78,30.07,29.96,0,0,0,0.00
2013-8-2,61.7,54.1,50.4,55.0,51.6,49.0,97,91,77,29.98,29.92,0,0,0,0.00
2013-8-3,60.4,53.9,51.1,55.0,51.7,50.0,97,92,80,29.97,29.92,0,0,0,0.00
2013-8-4,59.1,53.7,51.2,54.0,51.5,50.0,97,93,80,30.01,29.96,0,0,0,0.00
2013-8-5,56.8,53.0,52.3,55.0,52.1,51.0,97,96,92,30.03,29.98,0,0,0,0.02
2013-8-6,61.2,56.8,51.3,56.0,54.1,51.0,97,90,80,30.04,29.98,0,0,0,0.03
2013-8-7,65.5,57.9,53.8,58.0,55.2,53.0,99,91,76,30.10,30.03,0,0,0,0.02
2013-8-8,63.3,57.0,53.3,58.0,54.5,52.0,97,91,79,30.03,29.94,0,0,0,0.11
2013-8-9,62.5,56.3,52.4,58.0,54.4,51.0,97,93,84,29.97,29.91,0,0,0,0.03
2013-8-10,63.1,59.0,55.3,58.0,56.1,54.0,100,90,81,30.05,30.00,0,0,0,0.01
2013-8-11,58.0,54.9,52.9,55.0,53.5,52.0,97,95,89,30.02,29.95,0,0,0,0.01
2013-8-12,62.0,55.4,52.6,57.0,53.7,52.0,97,94,83,30.00,29.94,0,0,0,0.00
2013-8-13,68.0,57.7,53.4,58.0,54.2,52.0,96,88,70,29.98,29.93,0,0,0,0.00
2013-8-14,63.6,57.6,52.5,60.0,55.1,51.0,96,91,80,29.98,29.91,0,0,0,0.00
2013-8-15,67.6,60.9,57.2,63.0,59.2,56.0,97,94,84,29.97,29.90,0,0,0,0.00
2013-8-16,61.8,58.1,55.4,59.0,56.8,54.0,97,95,89,30.00,29.93,0,0,0,0.00
2013-8-17,64.1,57.9,54.0,59.0,55.9,53.0,97,93,83,29.99,29.86,0,0,0,0.00
2013-8-18,68.8,60.4,54.4,61.0,56.7,53.0,98,87,73,29.88,29.79,0,0,0,0.00
2013-8-19,65.0,58.7,53.9,58.0,55.9,53.0,96,90,78,29.90,29.79,0,0,0,0.00
2013-8-20,69.4,59.3,55.4,60.0,56.2,54.0,97,89,71,29.89,29.83,0,0,0,0.00
2013-8-21,65.2,58.6,55.2,57.0,54.6,53.0,93,87,73,29.94,29.87,0,0,0,0.00
2013-8-22,65.1,58.7,55.5,56.0,54.3,53.0,92,85,72,29.97,29.89,0,0,0,0.00
2013-8-23,58.8,56.3,54.0,55.0,53.8,52.0,94,91,85,29.92,29.82,0,0,0,0.00
2013-8-24,64.6,58.1,54.1,58.0,55.6,53.0,97,91,79,29.90,29.83,0,0,0,0.00
2013-8-25,67.4,61.5,57.9,63.0,59.4,57.0,98,93,83,29.94,29.88,0,0,0,0.01
2013-8-26,64.8,58.9,56.5,59.0,56.3,55.0,96,91,78,30.00,29.90,0,0,0,0.03
2013-8-27,63.2,57.5,53.3,60.0,55.8,52.0,97,94,84,29.90,29.83,0,0,0,0.00
2013-8-28,67.5,60.2,55.5,63.0,58.7,55.0,98,94,84,29.94,29.84,0,0,0,0.01
2013-8-29,66.6,61.2,57.6,63.0,59.6,57.0,98,94,83,30.06,29.94,0,0,0,0.02
2013-8-30,69.9,61.1,56.5,63.0,58.5,56.0,98,91,77,30.04,29.92,0,0,0,0.01
2013-8-31,62.8,57.7,54.5,59.0,56.1,54.0,97,94,87,29.98,29.90,0,0,0,0.00
2013-9-1,64.2,58.8,54.1,60.0,57.1,53.0,97,94,83,29.95,29.90,0,0,0,0.00
2013-9-2,70.2,62.6,59.0,64.0,60.4,58.0,98,92,80,29.96,29.88,0,0,0,0.00
2013-9-3,69.2,61.3,57.1,62.0,58.7,56.0,97,91,76,30.00,29.92,0,0,0,0.00
2013-9-4,67.7,60.8,57.5,61.0,58.6,56.0,97,92,79,30.03,29.94,0,0,0,0.00
2013-9-5,68.1,60.0,56.2,60.0,57.1,54.0,97,90,75,30.02,29.94,0,0,0,0.00
2013-9-6,77.1,66.1,54.5,60.0,53.7,49.0,95,68,44,29.98,29.83,0,0,0,0.00
2013-9-7,81.5,67.9,54.9,62.0,54.4,48.0,95,64,45,29.86,29.80,0,0,0,0.00
2013-9-8,64.5,57.0,52.7,60.0,54.9,52.0,97,93,80,29.86,29.77,0,0,0,0.00
2013-9-9,65.6,57.2,52.4,61.0,55.2,51.0,98,93,78,29.81,29.72,0,0,0,0.00
2013-9-10,69.4,60.6,55.6,61.0,57.8,55.0,98,91,74,29.89,29.73,0,0,0,0.02
2013-9-11,69.8,60.9,59.4,60.0,54.6,-99.9,92,84,72,29.99,29.88,0,-21,0,0.00
2013-9-12,65.0,59.9,56.5,61.0,58.1,55.0,97,94,84,29.97,29.89,0,0,0,0.04
2013-9-13,60.3,55.8,53.8,57.0,54.6,53.0,97,96,89,29.90,29.77,0,0,0,0.02
2013-9-14,60.3,55.8,53.1,57.0,54.4,52.0,100,95,89,29.82,29.75,0,0,0,0.01
2013-9-15,67.1,59.2,53.8,58.0,55.6,52.0,96,88,70,29.87,29.77,0,0,0,0.00
2013-9-16,65.9,58.6,55.4,60.0,56.3,54.0,97,92,78,29.89,29.80,0,0,0,0.00
2013-9-17,65.0,57.7,54.7,57.0,54.3,51.0,97,88,71,29.88,29.82,0,0,0,0.00
2013-9-18,72.0,59.0,52.0,57.0,52.1,50.0,93,79,50,29.91,29.83,0,0,0,0.00
2013-9-19,75.2,59.5,51.5,59.0,52.5,48.0,93,79,55,29.85,29.76,0,0,0,0.00
2013-9-20,66.1,58.4,51.3,62.0,56.5,50.0,97,93,85,29.86,29.76,0,0,0,0.00
2013-9-21,60.9,58.2,54.6,59.0,57.0,54.0,98,96,92,29.89,29.80,0,0,0,0.47
2013-9-22,64.6,57.1,51.6,57.0,54.1,51.0,97,90,73,30.00,29.89,0,0,0,0.00
2013-9-23,73.8,60.8,54.4,60.0,55.5,51.0,95,83,58,30.01,29.94,0,0,0,0.00
2013-9-24,65.2,57.3,53.4,58.0,54.2,51.0,95,89,76,30.00,29.91,0,0,0,0.00
2013-9-25,63.6,55.3,50.7,53.0,49.8,47.0,94,82,67,29.93,29.82,0,0,0,0.00
2013-9-26,65.7,56.4,48.8,49.0,45.1,40.0,85,67,48,29.97,29.83,0,0,0,0.00
2013-9-27,72.2,61.3,51.4,49.0,41.7,36.0,89,51,29,30.09,29.98,0,0,0,0.00
2013-9-28,72.4,59.5,51.3,56.0,50.2,42.0,95,73,41,30.07,30.01,0,0,0,0.00
2013-9-29,69.6,60.4,53.9,61.0,57.6,53.0,97,90,75,30.10,30.05,0,0,0,0.00
2013-9-30,64.6,60.0,53.2,63.0,58.3,47.0,98,94,78,30.06,29.97,0,0,0,0.01
2013-10-1,64.0,56.0,50.9,53.0,50.8,48.0,95,83,62,30.00,29.92,0,0,0,0.00
2013-10-2,64.1,54.9,50.8,53.0,48.8,44.0,94,80,67,30.00,29.92,0,0,0,0.00
2013-10-3,65.4,56.8,48.2,48.0,42.3,32.0,83,61,29,30.07,29.96,0,0,0,0.00
2013-10-4,73.9,66.9,60.6,35.0,30.4,25.0,36,26,16,30.07,29.96,0,0,0,0.00
2013-10-5,78.7,68.7,61.7,39.0,31.3,26.0,42,26,15,30.17,30.07,0,0,0,0.00
2013-10-6,78.5,68.1,60.8,42.0,34.3,27.0,42,29,18,30.09,29.97,0,0,0,0.00
2013-10-7,74.2,62.1,51.2,50.0,41.3,30.0,89,51,26,29.98,29.87,0,0,0,0.00
2013-10-8,64.7,53.9,49.3,53.0,48.5,47.0,93,83,59,29.90,29.71,0,0,0,0.00
2013-10-9,61.5,53.2,48.0,49.0,46.6,44.0,93,79,58,29.76,29.62,0,0,0,0.00
2013-10-10,62.1,52.9,48.9,52.0,48.7,46.0,93,86,69,30.00,29.75,0,0,0,0.00
2013-10-11,56.2,50.5,48.1,50.0,47.8,46.0,98,90,78,30.08,29.98,0,0,0,0.00
2013-10-12,55.3,50.2,46.8,50.0,47.8,46.0,96,91,81,30.00,29.91,0,0,0,0.00
2013-10-13,66.7,54.3,48.4,54.0,47.8,40.0,97,80,45,30.05,29.92,0,0,0,0.00
2013-10-14,71.5,60.3,53.1,50.0,43.4,37.0,85,56,34,30.10,30.00,0,0,0,0.00
2013-10-15,73.9,64.0,58.5,48.0,37.2,32.0,69,38,24,30.02,29.95,0,0,0,0.00
2013-10-16,78.6,65.4,57.6,46.0,36.7,31.0,65,36,21,30.06,29.98,0,0,0,0.00
2013-10-17,76.9,63.7,51.1,49.0,40.4,32.0,90,46,27,30.05,29.96,0,0,0,0.00
2013-10-18,63.9,52.1,46.8,52.0,48.0,44.0,96,86,64,30.04,29.97,0,0,0,0.00
2013-10-19,74.5,57.2,48.0,53.0,47.9,43.0,98,73,41,30.06,30.00,0,0,0,0.00
2013-10-20,60.8,50.4,45.4,53.0,47.7,44.0,97,90,72,30.01,29.92,0,0,0,0.00
2013-10-21,54.7,49.4,47.7,51.0,47.7,46.0,97,93,84,30.00,29.93,0,0,0,0.00
2013-10-22,58.5,49.8,47.5,55.0,48.3,46.0,97,94,82,30.01,29.93,0,0,0,0.00
2013-10-23,58.1,49.4,46.3,53.0,47.9,46.0,98,94,79,29.98,29.92,0,0,0,0.00
2013-10-24,53.5,49.8,47.7,49.0,47.8,46.0,96,92,84,30.10,29.97,0,0,0,0.00
2013-10-25,60.7,52.4,47.0,52.0,49.1,46.0,96,88,71,30.16,30.08,0,0,0,0.00
2013-10-26,68.4,53.3,47.7,56.0,49.3,47.0,98,87,61,30.13,30.02,0,0,0,0.01
2013-10-27,53.7,50.2,47.5,51.0,48.3,47.0,97,93,85,30.03,29.68,0,0,0,0.00
2013-10-28,56.8,51.3,47.4,50.0,48.3,45.0,96,89,79,29.84,29.66,0,0,0,0.00
2013-10-29,59.2,51.9,47.4,51.0,48.1,46.0,96,87,71,30.04,29.84,0,0,0,0.00
2013-10-30,62.4,51.3,47.1,53.0,47.4,43.0,97,87,68,30.14,30.04,0,0,0,0.00
2013-10-31,67.4,54.9,48.9,52.0,46.1,41.0,92,73,56,30.16,30.07,0,0,0,0.00
2013-11-1,67.6,59.3,51.8,50.0,46.0,41.0,85,63,45,30.12,30.00,0,0,0,0.00
2013-11-2,60.1,52.3,47.9,53.0,47.8,44.0,95,85,57,30.01,29.91,0,0,0,0.00
2013-11-3,57.8,51.3,46.9,46.0,41.9,37.0,89,71,50,30.05,29.92,0,0,0,0.00
2013-11-4,59.2,52.8,45.4,44.0,39.3,34.0,84,62,42,30.07,29.91,0,0,0,0.00
2013-11-5,66.4,58.6,51.9,45.0,35.7,33.0,70,43,29,30.20,30.05,0,0,0,0.00
2013-11-6,65.0,60.1,53.5,42.0,39.3,35.0,60,47,41,30.24,30.14,0,0,0,0.00
2013-11-7,69.4,57.6,51.8,51.0,44.4,38.0,94,64,38,30.15,30.06,0,0,0,0.00
2013-11-8,65.0,53.7,48.8,54.0,49.1,46.0,96,85,61,30.07,29.96,0,0,0,0.00
2013-11-9,65.3,53.3,46.9,51.0,48.3,45.0,94,84,58,30.03,29.96,0,0,0,0.00
2013-11-10,59.3,51.8,47.7,52.0,48.8,46.0,96,89,74,30.11,30.01,0,0,0,0.01
2013-11-11,60.3,53.6,49.2,52.0,49.0,45.0,94,84,69,30.15,30.05,0,0,0,0.00
2013-11-12,63.9,57.6,52.6,52.0,49.8,46.0,93,76,62,30.26,30.14,0,0,0,0.00
2013-11-13,67.1,55.1,50.3,56.0,51.1,49.0,96,87,68,30.23,30.10,0,0,0,0.00
2013-11-14,52.7,50.5,48.3,52.0,49.2,46.0,97,95,91,30.10,29.88,0,0,0,0.00
2013-11-15,58.1,49.8,45.9,49.0,46.0,44.0,95,87,67,29.89,29.73,0,0,0,0.01
2013-11-16,56.7,49.3,43.7,50.0,46.3,42.0,96,90,66,29.92,29.75,0,0,0,0.00
2013-11-17,56.3,49.7,46.3,49.0,46.8,44.0,96,89,74,30.08,29.92,0,0,0,0.00
2013-11-18,55.1,49.5,45.0,49.0,46.8,43.0,96,90,76,30.14,30.07,0,0,0,0.01
2013-11-19,51.6,50.8,50.0,49.0,47.9,47.0,91,90,89,30.09,30.06,0,0,0,0.00